createdAt,value
2019-03-06T00:00:58.133Z,3.98
2019-03-06T00:03:27.977Z,3.95
2019-03-06T00:05:57.740Z,3.93
2019-03-06T00:08:27.488Z,3.96
2019-03-06T00:10:57.250Z,3.93
2019-03-06T00:13:26.995Z,3.94
2019-03-06T00:15:56.765Z,3.88
2019-03-06T00:18:26.591Z,3.88
2019-03-06T00:20:56.367Z,3.94
2019-03-06T00:23:26.112Z,3.88
2019-03-06T00:25:55.971Z,3.83
2019-03-06T00:28:25.719Z,3.82
2019-03-06T00:30:57.049Z,3.81
2019-03-06T00:33:26.790Z,3.76
2019-03-06T00:35:58.163Z,3.74
2019-03-06T00:38:27.929Z,3.74
2019-03-06T00:41:03.158Z,3.69
2019-03-06T00:43:32.998Z,3.67
2019-03-06T00:46:02.763Z,3.68
2019-03-06T00:48:32.820Z,3.67
2019-03-06T00:51:02.623Z,3.62
2019-03-06T00:53:32.396Z,3.64
2019-03-06T00:56:02.257Z,3.64
2019-03-06T00:58:32.021Z,3.61
2019-03-06T01:01:01.786Z,3.58
2019-03-06T01:03:31.559Z,3.58
2019-03-06T01:06:02.004Z,3.57
2019-03-06T01:08:31.764Z,3.54
2019-03-06T01:11:01.529Z,3.53
2019-03-06T01:13:31.290Z,3.52
2019-03-06T01:16:01.033Z,3.52
2019-03-06T01:18:30.803Z,3.46
2019-03-06T01:21:00.554Z,3.48
2019-03-06T01:23:30.505Z,3.49
2019-03-06T01:26:00.235Z,3.46
2019-03-06T01:28:29.998Z,3.46
2019-03-06T01:30:59.741Z,3.42
2019-03-06T01:33:43.096Z,3.36
2019-03-06T01:36:20.670Z,3.39
2019-03-06T01:38:57.937Z,3.34
2019-03-06T01:41:47.392Z,3.36
2019-03-06T01:44:18.735Z,3.34
2019-03-06T01:46:48.507Z,3.32
2019-03-06T01:49:18.305Z,3.28
2019-03-06T01:51:48.085Z,3.20
2019-03-06T01:54:18.000Z,3.21
2019-03-06T01:56:47.796Z,3.19
2019-03-06T01:59:17.595Z,3.14
2019-03-06T02:01:47.550Z,3.11
2019-03-06T02:04:17.334Z,3.12
2019-03-06T02:06:47.112Z,3.10
2019-03-06T02:09:18.513Z,3.12
2019-03-06T02:11:48.294Z,3.12
2019-03-06T02:14:18.071Z,3.14
2019-03-06T02:16:47.833Z,3.09
2019-03-06T02:19:17.573Z,3.13
2019-03-06T02:21:47.383Z,3.13
2019-03-06T02:24:17.691Z,3.11
2019-03-06T02:26:48.523Z,3.05
2019-03-06T02:29:18.270Z,3.10
2019-03-06T02:31:48.030Z,3.03
2019-03-06T02:34:17.839Z,3.00
2019-03-06T02:36:47.613Z,3.01
2019-03-06T02:39:17.485Z,2.97
2019-03-06T02:41:47.269Z,3.00
2019-03-06T02:44:17.050Z,2.95
2019-03-06T02:46:47.816Z,2.94
2019-03-06T02:49:17.872Z,2.91
2019-03-06T02:51:47.681Z,2.86
2019-03-06T02:54:17.461Z,2.87
2019-03-06T02:56:47.232Z,2.81
2019-03-06T02:59:24.404Z,2.77
2019-03-06T03:02:11.108Z,2.75
2019-03-06T03:04:42.461Z,2.73
2019-03-06T03:07:13.262Z,2.71
2019-03-06T03:09:43.055Z,2.66
2019-03-06T03:12:12.833Z,2.65
2019-03-06T03:14:42.619Z,2.65
2019-03-06T03:17:12.397Z,2.64
2019-03-06T03:19:42.160Z,2.62
2019-03-06T03:22:11.901Z,2.59
2019-03-06T03:24:41.673Z,2.59
2019-03-06T03:27:11.421Z,2.58
2019-03-06T03:29:41.223Z,2.56
2019-03-06T03:32:11.362Z,2.55
2019-03-06T03:34:41.173Z,2.48
2019-03-06T03:37:10.940Z,2.47
2019-03-06T03:39:40.752Z,2.53
2019-03-06T03:42:12.637Z,2.47
2019-03-06T03:44:42.442Z,2.46
2019-03-06T03:47:12.220Z,2.53
2019-03-06T03:49:42.036Z,2.50
2019-03-06T03:52:11.814Z,2.54
2019-03-06T03:54:41.594Z,2.57
2019-03-06T03:57:13.060Z,2.54
2019-03-06T03:59:42.869Z,2.58
2019-03-06T04:02:12.650Z,2.59
2019-03-06T04:04:42.453Z,2.57
2019-03-06T04:07:12.229Z,2.59
2019-03-06T04:09:42.188Z,2.57
2019-03-06T04:12:11.968Z,2.59
2019-03-06T04:14:41.737Z,2.57
2019-03-06T04:17:11.496Z,2.55
2019-03-06T04:19:41.242Z,2.56
2019-03-06T04:22:11.306Z,2.49
2019-03-06T04:24:41.046Z,2.47
2019-03-06T04:27:10.819Z,2.42
2019-03-06T04:29:40.561Z,2.39
2019-03-06T04:32:10.372Z,2.35
2019-03-06T04:34:40.385Z,2.32
2019-03-06T04:37:10.177Z,2.30
2019-03-06T04:39:39.914Z,2.29
2019-03-06T04:42:09.682Z,2.24
2019-03-06T04:44:39.462Z,2.20
2019-03-06T04:47:09.276Z,2.12
2019-03-06T04:49:39.042Z,2.10
2019-03-06T04:52:08.824Z,2.03
2019-03-06T04:54:38.596Z,2.01
2019-03-06T04:57:08.332Z,1.98
2019-03-06T04:59:38.111Z,1.99
2019-03-06T05:02:07.862Z,1.95
2019-03-06T05:04:37.655Z,1.94
2019-03-06T05:07:07.409Z,1.92
2019-03-06T05:09:37.219Z,1.91
2019-03-06T05:12:06.980Z,1.90
2019-03-06T05:14:36.759Z,1.85
2019-03-06T05:17:08.213Z,1.82
2019-03-06T05:19:38.114Z,1.78
2019-03-06T05:22:08.170Z,1.76
2019-03-06T05:24:37.984Z,1.74
2019-03-06T05:27:07.746Z,1.73
2019-03-06T05:29:37.530Z,1.70
2019-03-06T05:32:27.422Z,1.72
2019-03-06T05:34:59.325Z,1.73
2019-03-06T05:37:51.962Z,1.71
2019-03-06T05:40:21.761Z,1.73
2019-03-06T05:42:51.632Z,1.72
2019-03-06T05:45:21.434Z,1.75
2019-03-06T05:47:51.208Z,1.78
2019-03-06T05:50:21.299Z,1.84
2019-03-06T05:52:51.082Z,1.96
2019-03-06T05:55:20.884Z,2.06
2019-03-06T05:57:50.655Z,2.15
2019-03-06T06:00:22.032Z,2.24
2019-03-06T06:02:51.862Z,2.30
2019-03-06T06:05:21.676Z,2.36
2019-03-06T06:07:51.456Z,2.46
2019-03-06T06:10:21.228Z,2.51
2019-03-06T06:12:51.185Z,2.59
2019-03-06T06:15:20.924Z,2.68
2019-03-06T06:17:50.708Z,2.77
2019-03-06T06:20:20.567Z,2.87
2019-03-06T06:22:51.935Z,3.01
2019-03-06T06:25:21.674Z,3.09
2019-03-06T06:27:51.520Z,3.05
2019-03-06T06:30:22.099Z,3.07
2019-03-06T06:32:52.038Z,3.14
2019-03-06T06:35:21.781Z,3.25
2019-03-06T06:37:51.583Z,3.37
2019-03-06T06:40:21.320Z,3.46
2019-03-06T06:42:51.100Z,3.57
2019-03-06T06:45:20.876Z,3.66
2019-03-06T06:48:10.929Z,3.81
2019-03-06T06:50:49.457Z,3.87
2019-03-06T06:53:40.631Z,4.03
2019-03-06T06:56:37.874Z,4.11
2019-03-06T06:59:11.443Z,4.10
2019-03-06T07:01:57.973Z,4.22
2019-03-06T07:04:51.885Z,4.29
2019-03-06T07:07:29.017Z,4.40
2019-03-06T07:10:00.394Z,4.49
2019-03-06T07:12:34.545Z,4.52
2019-03-06T07:15:13.304Z,4.55
2019-03-06T07:17:44.689Z,4.66
2019-03-06T07:20:17.779Z,4.72
2019-03-06T07:22:55.094Z,4.72
2019-03-06T07:25:26.469Z,4.67
2019-03-06T07:27:57.818Z,4.75
2019-03-06T07:30:35.282Z,4.79
2019-03-06T07:33:12.391Z,4.83
2019-03-06T07:36:06.020Z,4.90
2019-03-06T07:38:36.890Z,4.97
2019-03-06T07:41:08.262Z,5.05
2019-03-06T07:43:45.815Z,5.12
2019-03-06T07:46:17.455Z,5.27
2019-03-06T07:49:06.415Z,5.37
2019-03-06T07:51:37.783Z,5.31
2019-03-06T07:54:15.206Z,5.43
2019-03-06T07:56:56.328Z,5.46
2019-03-06T07:59:26.097Z,5.55
2019-03-06T08:01:58.995Z,5.62
2019-03-06T08:04:28.772Z,5.72
2019-03-06T08:07:00.140Z,5.81
2019-03-06T08:09:29.991Z,5.88
2019-03-06T08:12:01.374Z,5.92
2019-03-06T08:14:38.743Z,5.90
2019-03-06T08:17:26.611Z,5.93
2019-03-06T08:19:58.237Z,6.09
2019-03-06T08:22:38.903Z,6.14
2019-03-06T08:25:13.094Z,6.20
2019-03-06T08:27:42.903Z,6.29
2019-03-06T08:30:12.782Z,6.27
2019-03-06T08:32:42.569Z,6.37
2019-03-06T08:35:12.383Z,6.40
2019-03-06T08:37:42.116Z,6.49
2019-03-06T08:40:12.598Z,6.54
2019-03-06T08:42:42.347Z,6.68
2019-03-06T08:45:15.432Z,6.79
2019-03-06T08:47:46.735Z,6.80
2019-03-06T08:50:18.128Z,6.89
2019-03-06T08:52:49.431Z,6.95
2019-03-06T08:55:29.606Z,6.99
2019-03-06T08:58:19.319Z,7.02
2019-03-06T09:01:07.081Z,7.04
2019-03-06T09:03:47.406Z,7.17
2019-03-06T09:06:30.908Z,7.15
2019-03-06T09:09:08.128Z,7.23
2019-03-06T09:11:45.496Z,7.36
2019-03-06T09:14:20.193Z,7.37
2019-03-06T09:17:01.396Z,7.46
2019-03-06T09:19:48.972Z,7.57
2019-03-06T09:22:32.731Z,7.65
2019-03-06T09:25:04.069Z,7.76
2019-03-06T09:27:35.456Z,7.85
2019-03-06T09:30:30.067Z,7.96
2019-03-06T09:33:04.170Z,8.03
2019-03-06T09:35:41.441Z,7.99
2019-03-06T09:38:29.055Z,8.03
2019-03-06T09:41:17.098Z,8.08
2019-03-06T09:43:57.308Z,8.15
2019-03-06T09:46:34.665Z,8.24
2019-03-06T09:49:12.051Z,8.36
2019-03-06T09:51:43.395Z,8.49
2019-03-06T09:54:23.860Z,8.59
2019-03-06T09:56:55.216Z,8.70
2019-03-06T09:59:28.856Z,8.80
2019-03-06T10:02:06.719Z,8.86
2019-03-06T10:04:35.983Z,8.96
2019-03-06T10:07:10.309Z,9.05
2019-03-06T10:09:41.671Z,9.12
2019-03-06T10:12:19.040Z,9.21
2019-03-06T10:14:56.537Z,9.27
2019-03-06T10:17:33.863Z,9.38
2019-03-06T10:20:05.640Z,9.54
2019-03-06T10:22:35.403Z,9.56
2019-03-06T10:25:07.093Z,9.65
2019-03-06T10:27:36.878Z,9.69
2019-03-06T10:30:12.142Z,9.68
2019-03-06T10:32:42.189Z,9.75
2019-03-06T10:35:15.961Z,9.78
2019-03-06T10:37:45.815Z,9.79
2019-03-06T10:40:17.483Z,9.88
2019-03-06T10:42:47.252Z,9.87
2019-03-06T10:45:17.738Z,9.86
2019-03-06T10:47:47.896Z,9.94
2019-03-06T10:50:26.918Z,10.02
2019-03-06T10:52:53.721Z,10.07
2019-03-06T10:55:23.525Z,10.13
2019-03-06T10:57:53.571Z,10.23
2019-03-06T11:00:30.623Z,10.25
2019-03-06T11:03:00.685Z,10.29
2019-03-06T11:05:32.012Z,10.37
2019-03-06T11:08:02.103Z,10.45
2019-03-06T11:10:33.526Z,10.54
2019-03-06T11:13:08.499Z,10.54
2019-03-06T11:15:38.175Z,10.58
2019-03-06T11:18:08.337Z,10.53
2019-03-06T11:20:38.341Z,10.53
2019-03-06T11:23:11.764Z,10.44
2019-03-06T11:25:42.075Z,10.40
2019-03-06T11:28:13.019Z,10.50
2019-03-06T11:30:51.088Z,10.58
2019-03-06T11:33:21.968Z,10.67
2019-03-06T11:35:53.074Z,10.72
2019-03-06T11:38:22.841Z,10.71
2019-03-06T11:40:52.702Z,10.86
2019-03-06T11:43:22.470Z,10.83
2019-03-06T11:45:52.209Z,10.86
2019-03-06T11:48:22.025Z,10.83
2019-03-06T11:50:51.762Z,10.87
2019-03-06T11:53:21.551Z,10.81
2019-03-06T11:55:51.313Z,10.86
2019-03-06T11:58:21.617Z,10.89
2019-03-06T12:00:51.402Z,10.88
2019-03-06T12:03:22.297Z,10.90
2019-03-06T12:05:52.068Z,10.95
2019-03-06T12:08:21.852Z,10.98
2019-03-06T12:10:51.731Z,11.02
2019-03-06T12:13:21.486Z,11.11
2019-03-06T12:15:51.781Z,11.17
2019-03-06T12:18:23.065Z,11.12
2019-03-06T12:20:53.168Z,11.06
2019-03-06T12:23:22.999Z,11.06
2019-03-06T12:25:52.858Z,11.06
2019-03-06T12:28:22.610Z,11.04
2019-03-06T12:30:52.493Z,10.98
2019-03-06T12:33:27.108Z,10.98
2019-03-06T12:35:56.906Z,11.07
2019-03-06T12:38:26.641Z,11.12
2019-03-06T12:40:56.448Z,11.13
2019-03-06T12:43:26.199Z,11.14
2019-03-06T12:46:22.830Z,11.10
2019-03-06T12:48:48.169Z,11.15
2019-03-06T12:51:17.965Z,11.11
2019-03-06T12:53:47.917Z,11.10
2019-03-06T12:56:18.170Z,11.14
2019-03-06T12:58:48.070Z,11.21
2019-03-06T13:01:17.886Z,11.29
2019-03-06T13:03:47.686Z,11.28
2019-03-06T13:06:24.581Z,11.30
2019-03-06T13:08:50.605Z,11.31
2019-03-06T13:11:20.481Z,11.29
2019-03-06T13:13:50.260Z,11.24
2019-03-06T13:16:20.030Z,11.19
2019-03-06T13:18:49.816Z,11.22
2019-03-06T13:21:19.735Z,11.24
2019-03-06T13:23:49.535Z,11.35
2019-03-06T13:26:19.271Z,11.34
2019-03-06T13:28:57.046Z,11.33
2019-03-06T13:31:20.527Z,11.39
2019-03-06T13:33:58.376Z,11.45
2019-03-06T13:36:28.167Z,11.47
2019-03-06T13:39:06.014Z,11.44
2019-03-06T13:41:29.539Z,11.40
2019-03-06T13:43:59.298Z,11.35
2019-03-06T13:46:29.316Z,11.34
2019-03-06T13:48:59.132Z,11.35
2019-03-06T13:51:28.913Z,11.37
2019-03-06T13:53:58.693Z,11.36
2019-03-06T13:56:28.502Z,11.37
2019-03-06T13:58:58.355Z,11.35
2019-03-06T14:01:28.323Z,11.42
2019-03-06T14:03:58.096Z,11.48
2019-03-06T14:06:27.868Z,11.49
2019-03-06T14:08:57.642Z,11.47
2019-03-06T14:11:27.374Z,11.45
2019-03-06T14:13:57.180Z,11.44
2019-03-06T14:16:26.988Z,11.50
2019-03-06T14:18:56.821Z,11.62
2019-03-06T14:21:26.595Z,11.67
2019-03-06T14:23:56.716Z,11.69
2019-03-06T14:26:26.496Z,11.70
2019-03-06T14:28:56.479Z,11.70
2019-03-06T14:31:26.249Z,11.65
2019-03-06T14:33:56.347Z,11.59
2019-03-06T14:36:26.225Z,11.59
2019-03-06T14:38:56.012Z,11.63
2019-03-06T14:41:25.874Z,11.59
2019-03-06T14:43:55.631Z,11.55
2019-03-06T14:46:25.444Z,11.46
2019-03-06T14:48:55.286Z,11.36
2019-03-06T14:51:25.077Z,11.29
2019-03-06T14:53:54.861Z,11.17
2019-03-06T14:56:24.672Z,11.12
2019-03-06T14:58:54.442Z,11.07
2019-03-06T15:01:24.241Z,11.04
2019-03-06T15:03:54.021Z,11.01
2019-03-06T15:06:23.810Z,10.99
2019-03-06T15:08:53.647Z,10.97
2019-03-06T15:11:23.564Z,10.94
2019-03-06T15:13:54.440Z,10.94
2019-03-06T15:16:24.198Z,10.94
2019-03-06T15:18:53.968Z,10.92
2019-03-06T15:21:23.754Z,10.91
2019-03-06T15:23:53.852Z,10.89
2019-03-06T15:26:23.637Z,10.92
2019-03-06T15:28:53.443Z,10.90
2019-03-06T15:31:23.233Z,10.95
2019-03-06T15:33:53.137Z,10.90
2019-03-06T15:36:22.924Z,10.87
2019-03-06T15:38:52.825Z,10.80
2019-03-06T15:41:22.617Z,10.72
2019-03-06T15:43:52.365Z,10.69
2019-03-06T15:46:22.170Z,10.63
2019-03-06T15:48:51.915Z,10.58
2019-03-06T15:51:21.972Z,10.54
2019-03-06T15:53:51.749Z,10.48
2019-03-06T15:56:21.531Z,10.45
2019-03-06T15:58:51.327Z,10.41
2019-03-06T16:01:21.086Z,10.36
2019-03-06T16:03:51.207Z,10.33
2019-03-06T16:06:21.050Z,10.29
2019-03-06T16:08:50.837Z,10.21
2019-03-06T16:11:20.632Z,10.16
2019-03-06T16:13:50.454Z,10.07
2019-03-06T16:16:20.480Z,9.99
2019-03-06T16:18:50.468Z,9.97
2019-03-06T16:21:20.306Z,9.92
2019-03-06T16:23:50.116Z,9.86
2019-03-06T16:26:19.933Z,9.78
2019-03-06T16:28:49.760Z,9.71
2019-03-06T16:31:19.759Z,9.64
2019-03-06T16:33:49.503Z,9.61
2019-03-06T16:36:19.311Z,9.55
2019-03-06T16:38:49.062Z,9.48
2019-03-06T16:41:18.857Z,9.46
2019-03-06T16:43:48.707Z,9.42
2019-03-06T16:46:18.488Z,9.38
2019-03-06T16:48:48.359Z,9.32
2019-03-06T16:51:18.093Z,9.25
2019-03-06T16:53:47.892Z,9.21
2019-03-06T16:56:17.664Z,9.20
2019-03-06T16:58:47.712Z,9.12
2019-03-06T17:01:17.581Z,9.03
2019-03-06T17:03:47.371Z,9.00
2019-03-06T17:06:17.214Z,8.99
2019-03-06T17:08:46.952Z,8.97
2019-03-06T17:11:16.879Z,8.94
2019-03-06T17:13:46.735Z,8.90
2019-03-06T17:16:16.972Z,8.90
2019-03-06T17:18:46.696Z,8.85
2019-03-06T17:21:16.595Z,8.83
2019-03-06T17:23:46.346Z,8.83
2019-03-06T17:26:16.764Z,8.80
2019-03-06T17:28:47.540Z,8.80
2019-03-06T17:31:17.339Z,8.78
2019-03-06T17:33:47.089Z,8.76
2019-03-06T17:36:16.917Z,8.75
2019-03-06T17:38:46.683Z,8.71
2019-03-06T17:41:16.459Z,8.68
2019-03-06T17:43:46.238Z,8.65
2019-03-06T17:46:16.042Z,8.61
2019-03-06T17:48:45.827Z,8.59
2019-03-06T17:51:15.595Z,8.56
2019-03-06T17:53:45.660Z,8.52
2019-03-06T17:56:15.405Z,8.49
2019-03-06T17:58:45.213Z,8.50
2019-03-06T18:01:16.531Z,8.51
2019-03-06T18:03:50.719Z,8.49
2019-03-06T18:06:19.442Z,8.50
2019-03-06T18:08:49.250Z,8.48
2019-03-06T18:11:18.993Z,8.43
2019-03-06T18:13:48.778Z,8.46
2019-03-06T18:16:21.110Z,8.45
2019-03-06T18:18:51.874Z,8.39
2019-03-06T18:21:22.907Z,8.36
2019-03-06T18:23:54.006Z,8.31
2019-03-06T18:26:24.544Z,8.31
2019-03-06T18:28:55.581Z,8.27
2019-03-06T18:31:26.061Z,8.23
2019-03-06T18:33:56.655Z,8.18
2019-03-06T18:36:27.523Z,8.12
2019-03-06T18:38:57.801Z,8.09
2019-03-06T18:41:27.710Z,8.09
2019-03-06T18:43:57.514Z,8.11
2019-03-06T18:46:27.567Z,8.08
2019-03-06T18:48:57.390Z,7.99
2019-03-06T18:51:27.186Z,7.95
2019-03-06T18:53:56.999Z,7.88
2019-03-06T18:56:58.312Z,7.80
2019-03-06T19:00:14.243Z,7.76
2019-03-06T19:03:04.471Z,7.70
2019-03-06T19:05:41.384Z,7.62
2019-03-06T19:08:19.604Z,7.65
2019-03-06T19:10:57.252Z,7.68
2019-03-06T19:13:37.687Z,7.67
2019-03-06T19:16:08.424Z,7.70
2019-03-06T19:18:40.886Z,7.71
2019-03-06T19:21:17.871Z,7.71
2019-03-06T19:23:53.615Z,7.69
2019-03-06T19:26:34.697Z,7.73
2019-03-06T19:29:13.431Z,7.76
2019-03-06T19:38:49.648Z,7.79
2019-03-06T19:41:09.767Z,7.74
2019-03-06T19:43:48.008Z,7.70
2019-03-06T19:46:31.636Z,7.71
2019-03-06T19:49:21.979Z,7.67
2019-03-06T19:51:58.971Z,7.62
2019-03-06T19:54:37.475Z,7.59
2019-03-06T19:57:30.149Z,7.60
2019-03-06T20:00:03.637Z,7.56
2019-03-06T20:02:40.887Z,7.54
2019-03-06T20:05:16.296Z,7.55
2019-03-06T20:07:52.534Z,7.53
2019-03-06T20:10:23.635Z,7.50
2019-03-06T20:12:55.287Z,7.52
2019-03-06T20:15:30.309Z,7.51
2019-03-06T20:18:25.337Z,7.53
2019-03-06T20:20:48.138Z,7.55
2019-03-06T20:23:19.902Z,7.53
2019-03-06T20:25:55.365Z,7.46
2019-03-06T20:28:37.758Z,7.46
2019-03-06T20:31:17.205Z,7.43
2019-03-06T20:33:57.567Z,7.43
2019-03-06T20:36:39.536Z,7.40
2019-03-06T20:39:12.966Z,7.38
2019-03-06T20:41:57.266Z,7.36
2019-03-06T20:44:32.526Z,7.33
2019-03-06T20:47:04.128Z,7.32
2019-03-06T20:49:35.645Z,7.32
2019-03-06T20:52:10.628Z,7.28
2019-03-06T20:54:52.633Z,7.26
2019-03-06T20:57:27.314Z,7.26
2019-03-06T21:00:12.773Z,7.27
2019-03-06T21:02:49.194Z,7.25
2019-03-06T21:05:19.666Z,7.23
2019-03-06T21:08:05.078Z,7.19
2019-03-06T21:10:24.662Z,7.15
2019-03-06T21:12:54.937Z,7.14
2019-03-06T21:15:32.643Z,7.15
2019-03-06T21:18:04.478Z,7.15
2019-03-06T21:20:42.994Z,7.10
2019-03-06T21:23:14.764Z,7.12
2019-03-06T21:25:46.703Z,7.11
2019-03-06T21:31:22.948Z,7.08
2019-03-06T21:33:55.125Z,7.07
2019-03-06T21:36:25.332Z,7.09
2019-03-06T21:39:00.466Z,7.08
2019-03-06T21:41:30.373Z,7.08
2019-03-06T21:44:01.965Z,7.07
2019-03-06T21:46:31.811Z,7.05
2019-03-06T21:49:01.549Z,7.06
2019-03-06T21:51:31.323Z,7.07
2019-03-06T21:54:01.090Z,7.07
2019-03-06T21:56:30.824Z,7.06
2019-03-06T21:59:00.786Z,7.05
2019-03-06T22:01:31.626Z,7.06
2019-03-06T22:04:01.751Z,7.06
2019-03-06T22:06:31.662Z,7.04
2019-03-06T22:09:01.444Z,7.04
2019-03-06T22:11:31.320Z,7.03
2019-03-06T22:14:01.100Z,7.02
2019-03-06T22:16:30.892Z,7.05
2019-03-06T22:19:01.053Z,7.05
2019-03-06T22:21:30.915Z,7.08
2019-03-06T22:24:00.725Z,7.05
2019-03-06T22:26:30.518Z,7.04
2019-03-06T22:29:00.251Z,7.01
2019-03-06T22:31:30.056Z,7.00
2019-03-06T22:33:59.786Z,7.01
2019-03-06T22:36:29.549Z,6.99
2019-03-06T22:38:59.309Z,7.02
2019-03-06T22:41:29.189Z,6.99
2019-03-06T22:43:58.964Z,6.91
2019-03-06T22:46:28.726Z,6.82
2019-03-06T22:48:58.490Z,6.76
2019-03-06T22:51:28.254Z,6.79
2019-03-06T22:53:58.110Z,6.82
2019-03-06T22:56:27.836Z,6.85
2019-03-06T22:58:57.597Z,6.82
2019-03-06T23:01:27.375Z,6.86
2019-03-06T23:03:57.148Z,6.87
2019-03-06T23:06:26.926Z,6.85
2019-03-06T23:08:56.685Z,6.88
2019-03-06T23:11:26.553Z,6.88
2019-03-06T23:13:56.287Z,6.86
2019-03-06T23:16:26.059Z,6.89
2019-03-06T23:18:55.823Z,6.88
2019-03-06T23:21:25.693Z,6.85
2019-03-06T23:23:55.477Z,6.83
2019-03-06T23:26:25.245Z,6.82
2019-03-06T23:28:55.011Z,6.81
2019-03-06T23:31:24.752Z,6.78
2019-03-06T23:33:54.918Z,6.77
2019-03-06T23:36:24.655Z,6.78
2019-03-06T23:38:54.413Z,6.78
2019-03-06T23:41:24.175Z,6.74
2019-03-06T23:43:53.949Z,6.71
2019-03-06T23:46:23.722Z,6.72
2019-03-06T23:48:53.686Z,6.71
2019-03-06T23:51:25.025Z,6.71
2019-03-06T23:53:54.820Z,6.71
2019-03-06T23:56:24.660Z,6.72
2019-03-06T23:58:54.417Z,6.71
